<?xml version="1.0" encoding="UTF-8" standalone="no" ?>
<gpx xmlns="http://www.topografix.com/GPX/1/1" xmlns:xsi="http://www.w3.org/2001/XMLSchema-instance" xsi:schemaLocation="http://www.topografix.com/GPX/1/1 http://www.topografix.com/GPX/1/1/gpx.xsd" version="1.1" creator="VisuGPX - https://www.visugpx.com">
  <metadata>
    <name>Entre Loire et coteaux à Parnay</name>
    <desc><![CDATA[50min de Tours]]></desc>
  </metadata>
  <wpt lat="47.23132" lon="0.01093">
    <ele>40</ele>
    <name><![CDATA[Parking en bord de Loire]]></name>
  </wpt>
  <wpt lat="47.23556" lon="0.00793">
    <ele>27</ele>
    <name><![CDATA[Chemin en bordure de Loire]]></name>
  </wpt>
  <wpt lat="47.23118" lon="0.02138">
    <ele>28</ele>
    <name><![CDATA[Chemin à droite]]></name>
  </wpt>
  <wpt lat="47.22858" lon="0.0198">
    <ele>29</ele>
    <name><![CDATA[À droite D947]]></name>
  </wpt>
  <wpt lat="47.22638" lon="0.01565">
    <ele>46</ele>
    <name><![CDATA[ Lavoir]]></name>
  </wpt>
  <wpt lat="47.21793" lon="0.01434">
    <ele>77</ele>
    <name><![CDATA[Route des Vins à gauche]]></name>
  </wpt>
  <wpt lat="47.20541" lon="0.0048">
    <ele>102</ele>
    <name><![CDATA[Carrefour de la Pierre Percée]]></name>
  </wpt>
  <wpt lat="47.21353" lon="-0.00895">
    <ele>88</ele>
    <name><![CDATA[Chemin à gauche]]></name>
  </wpt>
  <wpt lat="47.23435" lon="-0.001">
    <ele>42</ele>
    <name><![CDATA[Marconnay]]></name>
  </wpt>
  <wpt lat="47.235" lon="-0.00188">
    <ele>36</ele>
    <name><![CDATA[Rue des Ducs d'Anjou]]></name>
  </wpt>
  <wpt lat="47.23365" lon="0.00127">
    <ele>38</ele>
    <name><![CDATA[À gauche La Basse Rue.]]></name>
  </wpt>
  <wpt lat="47.23228" lon="0.00635">
    <ele>46</ele>
    <name><![CDATA[Rue du Montoir]]></name>
  </wpt>
  <wpt lat="47.23115" lon="0.00812">
    <ele>57</ele>
    <name><![CDATA[Rue de l'église]]></name>
  </wpt>
  <wpt lat="47.23125" lon="0.01084">
    <ele>42</ele>
    <name><![CDATA[Parking en bord de Loire]]></name>
  </wpt>
  <trk>
    <name><![CDATA[Entre Loire et coteaux à Parnay]]></name>
    <trkseg>
      <trkpt lat="47.23132" lon="0.01093">
        <ele>40</ele>
        <time>2021-02-20T11:45:02+01:00</time>
      </trkpt>
      <trkpt lat="47.23125" lon="0.01084">
        <ele>42</ele>
        <time>2021-02-20T11:45:07+01:00</time>
      </trkpt>
      <trkpt lat="47.23161" lon="0.00969">
        <ele>40</ele>
        <time>2021-02-20T11:45:12+01:00</time>
      </trkpt>
      <trkpt lat="47.232" lon="0.00848">
        <ele>42</ele>
        <time>2021-02-20T11:45:17+01:00</time>
      </trkpt>
      <trkpt lat="47.23239" lon="0.00726">
        <ele>37</ele>
        <time>2021-02-20T11:45:22+01:00</time>
      </trkpt>
      <trkpt lat="47.23298" lon="0.00549">
        <ele>36</ele>
        <time>2021-02-20T11:45:27+01:00</time>
      </trkpt>
      <trkpt lat="47.23305" lon="0.00564">
        <ele>35</ele>
        <time>2021-02-20T11:45:32+01:00</time>
      </trkpt>
      <trkpt lat="47.23317" lon="0.00594">
        <ele>32</ele>
        <time>2021-02-20T11:45:37+01:00</time>
      </trkpt>
      <trkpt lat="47.23335" lon="0.00636">
        <ele>29</ele>
        <time>2021-02-20T11:45:42+01:00</time>
      </trkpt>
      <trkpt lat="47.23353" lon="0.00684">
        <ele>29</ele>
        <time>2021-02-20T11:45:47+01:00</time>
      </trkpt>
      <trkpt lat="47.23366" lon="0.00689">
        <ele>30</ele>
        <time>2021-02-20T11:45:52+01:00</time>
      </trkpt>
      <trkpt lat="47.23373" lon="0.00694">
        <ele>30</ele>
        <time>2021-02-20T11:45:57+01:00</time>
      </trkpt>
      <trkpt lat="47.23378" lon="0.00696">
        <ele>30</ele>
        <time>2021-02-20T11:46:02+01:00</time>
      </trkpt>
      <trkpt lat="47.23391" lon="0.00697">
        <ele>30</ele>
        <time>2021-02-20T11:46:07+01:00</time>
      </trkpt>
      <trkpt lat="47.23409" lon="0.00703">
        <ele>30</ele>
        <time>2021-02-20T11:46:12+01:00</time>
      </trkpt>
      <trkpt lat="47.23426" lon="0.0071">
        <ele>30</ele>
        <time>2021-02-20T11:46:17+01:00</time>
      </trkpt>
      <trkpt lat="47.23461" lon="0.00725">
        <ele>30</ele>
        <time>2021-02-20T11:46:22+01:00</time>
      </trkpt>
      <trkpt lat="47.23481" lon="0.00733">
        <ele>30</ele>
        <time>2021-02-20T11:46:27+01:00</time>
      </trkpt>
      <trkpt lat="47.23523" lon="0.00763">
        <ele>30</ele>
        <time>2021-02-20T11:46:32+01:00</time>
      </trkpt>
      <trkpt lat="47.23542" lon="0.0078">
        <ele>29</ele>
        <time>2021-02-20T11:46:37+01:00</time>
      </trkpt>
      <trkpt lat="47.23545" lon="0.00785">
        <ele>28</ele>
        <time>2021-02-20T11:46:42+01:00</time>
      </trkpt>
      <trkpt lat="47.23556" lon="0.00793">
        <ele>27</ele>
        <time>2021-02-20T11:46:47+01:00</time>
      </trkpt>
      <trkpt lat="47.23551" lon="0.00815">
        <ele>26</ele>
        <time>2021-02-20T11:46:52+01:00</time>
      </trkpt>
      <trkpt lat="47.2354" lon="0.00823">
        <ele>26</ele>
        <time>2021-02-20T11:46:57+01:00</time>
      </trkpt>
      <trkpt lat="47.2353" lon="0.0082">
        <ele>27</ele>
        <time>2021-02-20T11:47:02+01:00</time>
      </trkpt>
      <trkpt lat="47.23524" lon="0.00827">
        <ele>27</ele>
        <time>2021-02-20T11:47:07+01:00</time>
      </trkpt>
      <trkpt lat="47.23515" lon="0.00846">
        <ele>27</ele>
        <time>2021-02-20T11:47:12+01:00</time>
      </trkpt>
      <trkpt lat="47.235" lon="0.00874">
        <ele>27</ele>
        <time>2021-02-20T11:47:17+01:00</time>
      </trkpt>
      <trkpt lat="47.23493" lon="0.00911">
        <ele>26</ele>
        <time>2021-02-20T11:47:22+01:00</time>
      </trkpt>
      <trkpt lat="47.23476" lon="0.00939">
        <ele>27</ele>
        <time>2021-02-20T11:47:27+01:00</time>
      </trkpt>
      <trkpt lat="47.23434" lon="0.00998">
        <ele>29</ele>
        <time>2021-02-20T11:47:32+01:00</time>
      </trkpt>
      <trkpt lat="47.23437" lon="0.01018">
        <ele>28</ele>
        <time>2021-02-20T11:47:37+01:00</time>
      </trkpt>
      <trkpt lat="47.23433" lon="0.0104">
        <ele>28</ele>
        <time>2021-02-20T11:47:42+01:00</time>
      </trkpt>
      <trkpt lat="47.23423" lon="0.01058">
        <ele>28</ele>
        <time>2021-02-20T11:47:47+01:00</time>
      </trkpt>
      <trkpt lat="47.23413" lon="0.01073">
        <ele>28</ele>
        <time>2021-02-20T11:47:52+01:00</time>
      </trkpt>
      <trkpt lat="47.23401" lon="0.01087">
        <ele>28</ele>
        <time>2021-02-20T11:47:57+01:00</time>
      </trkpt>
      <trkpt lat="47.23386" lon="0.011">
        <ele>28</ele>
        <time>2021-02-20T11:48:02+01:00</time>
      </trkpt>
      <trkpt lat="47.23376" lon="0.01111">
        <ele>28</ele>
        <time>2021-02-20T11:48:07+01:00</time>
      </trkpt>
      <trkpt lat="47.2337" lon="0.01132">
        <ele>29</ele>
        <time>2021-02-20T11:48:12+01:00</time>
      </trkpt>
      <trkpt lat="47.23359" lon="0.01167">
        <ele>29</ele>
        <time>2021-02-20T11:48:17+01:00</time>
      </trkpt>
      <trkpt lat="47.2335" lon="0.01188">
        <ele>30</ele>
        <time>2021-02-20T11:48:22+01:00</time>
      </trkpt>
      <trkpt lat="47.23337" lon="0.01202">
        <ele>30</ele>
        <time>2021-02-20T11:48:27+01:00</time>
      </trkpt>
      <trkpt lat="47.23337" lon="0.01231">
        <ele>31</ele>
        <time>2021-02-20T11:48:32+01:00</time>
      </trkpt>
      <trkpt lat="47.23341" lon="0.01249">
        <ele>31</ele>
        <time>2021-02-20T11:48:37+01:00</time>
      </trkpt>
      <trkpt lat="47.23337" lon="0.01265">
        <ele>31</ele>
        <time>2021-02-20T11:48:42+01:00</time>
      </trkpt>
      <trkpt lat="47.23329" lon="0.01287">
        <ele>31</ele>
        <time>2021-02-20T11:48:47+01:00</time>
      </trkpt>
      <trkpt lat="47.23323" lon="0.01306">
        <ele>31</ele>
        <time>2021-02-20T11:48:52+01:00</time>
      </trkpt>
      <trkpt lat="47.2332" lon="0.01328">
        <ele>30</ele>
        <time>2021-02-20T11:48:57+01:00</time>
      </trkpt>
      <trkpt lat="47.23314" lon="0.01352">
        <ele>30</ele>
        <time>2021-02-20T11:49:02+01:00</time>
      </trkpt>
      <trkpt lat="47.23303" lon="0.01385">
        <ele>30</ele>
        <time>2021-02-20T11:49:07+01:00</time>
      </trkpt>
      <trkpt lat="47.23303" lon="0.01401">
        <ele>29</ele>
        <time>2021-02-20T11:49:12+01:00</time>
      </trkpt>
      <trkpt lat="47.23298" lon="0.01434">
        <ele>29</ele>
        <time>2021-02-20T11:49:17+01:00</time>
      </trkpt>
      <trkpt lat="47.23285" lon="0.0147">
        <ele>30</ele>
        <time>2021-02-20T11:49:22+01:00</time>
      </trkpt>
      <trkpt lat="47.23277" lon="0.01492">
        <ele>30</ele>
        <time>2021-02-20T11:49:27+01:00</time>
      </trkpt>
      <trkpt lat="47.23269" lon="0.01511">
        <ele>31</ele>
        <time>2021-02-20T11:49:32+01:00</time>
      </trkpt>
      <trkpt lat="47.2325" lon="0.01557">
        <ele>31</ele>
        <time>2021-02-20T11:49:37+01:00</time>
      </trkpt>
      <trkpt lat="47.23228" lon="0.01594">
        <ele>31</ele>
        <time>2021-02-20T11:49:42+01:00</time>
      </trkpt>
      <trkpt lat="47.23221" lon="0.01623">
        <ele>30</ele>
        <time>2021-02-20T11:49:47+01:00</time>
      </trkpt>
      <trkpt lat="47.23221" lon="0.01641">
        <ele>29</ele>
        <time>2021-02-20T11:49:52+01:00</time>
      </trkpt>
      <trkpt lat="47.23215" lon="0.01659">
        <ele>29</ele>
        <time>2021-02-20T11:49:57+01:00</time>
      </trkpt>
      <trkpt lat="47.23209" lon="0.01687">
        <ele>30</ele>
        <time>2021-02-20T11:50:02+01:00</time>
      </trkpt>
      <trkpt lat="47.23203" lon="0.01704">
        <ele>30</ele>
        <time>2021-02-20T11:50:07+01:00</time>
      </trkpt>
      <trkpt lat="47.2319" lon="0.0173">
        <ele>31</ele>
        <time>2021-02-20T11:50:12+01:00</time>
      </trkpt>
      <trkpt lat="47.23169" lon="0.01754">
        <ele>33</ele>
        <time>2021-02-20T11:50:17+01:00</time>
      </trkpt>
      <trkpt lat="47.23141" lon="0.01769">
        <ele>32</ele>
        <time>2021-02-20T11:50:22+01:00</time>
      </trkpt>
      <trkpt lat="47.23135" lon="0.01787">
        <ele>32</ele>
        <time>2021-02-20T11:50:27+01:00</time>
      </trkpt>
      <trkpt lat="47.23131" lon="0.01803">
        <ele>31</ele>
        <time>2021-02-20T11:50:32+01:00</time>
      </trkpt>
      <trkpt lat="47.23139" lon="0.01826">
        <ele>31</ele>
        <time>2021-02-20T11:50:37+01:00</time>
      </trkpt>
      <trkpt lat="47.2315" lon="0.01867">
        <ele>31</ele>
        <time>2021-02-20T11:50:42+01:00</time>
      </trkpt>
      <trkpt lat="47.23156" lon="0.01893">
        <ele>30</ele>
        <time>2021-02-20T11:50:47+01:00</time>
      </trkpt>
      <trkpt lat="47.23162" lon="0.01922">
        <ele>29</ele>
        <time>2021-02-20T11:50:52+01:00</time>
      </trkpt>
      <trkpt lat="47.23162" lon="0.0193">
        <ele>28</ele>
        <time>2021-02-20T11:50:57+01:00</time>
      </trkpt>
      <trkpt lat="47.23161" lon="0.01942">
        <ele>28</ele>
        <time>2021-02-20T11:51:02+01:00</time>
      </trkpt>
      <trkpt lat="47.23159" lon="0.01951">
        <ele>28</ele>
        <time>2021-02-20T11:51:07+01:00</time>
      </trkpt>
      <trkpt lat="47.23157" lon="0.01961">
        <ele>27</ele>
        <time>2021-02-20T11:51:12+01:00</time>
      </trkpt>
      <trkpt lat="47.23153" lon="0.01982">
        <ele>27</ele>
        <time>2021-02-20T11:51:17+01:00</time>
      </trkpt>
      <trkpt lat="47.23149" lon="0.01997">
        <ele>26</ele>
        <time>2021-02-20T11:51:22+01:00</time>
      </trkpt>
      <trkpt lat="47.23147" lon="0.02012">
        <ele>26</ele>
        <time>2021-02-20T11:51:27+01:00</time>
      </trkpt>
      <trkpt lat="47.23146" lon="0.0203">
        <ele>27</ele>
        <time>2021-02-20T11:51:32+01:00</time>
      </trkpt>
      <trkpt lat="47.23141" lon="0.02048">
        <ele>27</ele>
        <time>2021-02-20T11:51:37+01:00</time>
      </trkpt>
      <trkpt lat="47.23136" lon="0.02053">
        <ele>27</ele>
        <time>2021-02-20T11:51:42+01:00</time>
      </trkpt>
      <trkpt lat="47.23134" lon="0.02059">
        <ele>27</ele>
        <time>2021-02-20T11:51:47+01:00</time>
      </trkpt>
      <trkpt lat="47.23132" lon="0.02067">
        <ele>27</ele>
        <time>2021-02-20T11:51:52+01:00</time>
      </trkpt>
      <trkpt lat="47.23128" lon="0.02081">
        <ele>27</ele>
        <time>2021-02-20T11:51:57+01:00</time>
      </trkpt>
      <trkpt lat="47.23124" lon="0.02091">
        <ele>28</ele>
        <time>2021-02-20T11:52:02+01:00</time>
      </trkpt>
      <trkpt lat="47.2312" lon="0.02112">
        <ele>28</ele>
        <time>2021-02-20T11:52:07+01:00</time>
      </trkpt>
      <trkpt lat="47.23118" lon="0.02138">
        <ele>28</ele>
        <time>2021-02-20T11:52:12+01:00</time>
      </trkpt>
      <trkpt lat="47.23032" lon="0.0209">
        <ele>28</ele>
        <time>2021-02-20T11:52:17+01:00</time>
      </trkpt>
      <trkpt lat="47.22958" lon="0.02051">
        <ele>29</ele>
        <time>2021-02-20T11:52:22+01:00</time>
      </trkpt>
      <trkpt lat="47.22939" lon="0.02039">
        <ele>29</ele>
        <time>2021-02-20T11:52:27+01:00</time>
      </trkpt>
      <trkpt lat="47.22915" lon="0.02021">
        <ele>30</ele>
        <time>2021-02-20T11:52:32+01:00</time>
      </trkpt>
      <trkpt lat="47.22901" lon="0.02011">
        <ele>30</ele>
        <time>2021-02-20T11:52:37+01:00</time>
      </trkpt>
      <trkpt lat="47.22885" lon="0.01999">
        <ele>30</ele>
        <time>2021-02-20T11:52:42+01:00</time>
      </trkpt>
      <trkpt lat="47.22858" lon="0.0198">
        <ele>29</ele>
        <time>2021-02-20T11:52:47+01:00</time>
      </trkpt>
      <trkpt lat="47.22844" lon="0.01969">
        <ele>29</ele>
        <time>2021-02-20T11:52:52+01:00</time>
      </trkpt>
      <trkpt lat="47.22866" lon="0.01906">
        <ele>29</ele>
        <time>2021-02-20T11:52:57+01:00</time>
      </trkpt>
      <trkpt lat="47.22869" lon="0.01889">
        <ele>30</ele>
        <time>2021-02-20T11:53:02+01:00</time>
      </trkpt>
      <trkpt lat="47.22876" lon="0.01876">
        <ele>30</ele>
        <time>2021-02-20T11:53:07+01:00</time>
      </trkpt>
      <trkpt lat="47.22894" lon="0.01828">
        <ele>30</ele>
        <time>2021-02-20T11:53:12+01:00</time>
      </trkpt>
      <trkpt lat="47.22896" lon="0.01813">
        <ele>30</ele>
        <time>2021-02-20T11:53:17+01:00</time>
      </trkpt>
      <trkpt lat="47.229" lon="0.01801">
        <ele>30</ele>
        <time>2021-02-20T11:53:22+01:00</time>
      </trkpt>
      <trkpt lat="47.22902" lon="0.01791">
        <ele>30</ele>
        <time>2021-02-20T11:53:27+01:00</time>
      </trkpt>
      <trkpt lat="47.22892" lon="0.01784">
        <ele>30</ele>
        <time>2021-02-20T11:53:32+01:00</time>
      </trkpt>
      <trkpt lat="47.22866" lon="0.01765">
        <ele>30</ele>
        <time>2021-02-20T11:53:37+01:00</time>
      </trkpt>
      <trkpt lat="47.22837" lon="0.01748">
        <ele>31</ele>
        <time>2021-02-20T11:53:42+01:00</time>
      </trkpt>
      <trkpt lat="47.22816" lon="0.01731">
        <ele>32</ele>
        <time>2021-02-20T11:53:47+01:00</time>
      </trkpt>
      <trkpt lat="47.22797" lon="0.01713">
        <ele>33</ele>
        <time>2021-02-20T11:53:52+01:00</time>
      </trkpt>
      <trkpt lat="47.22782" lon="0.01696">
        <ele>34</ele>
        <time>2021-02-20T11:53:57+01:00</time>
      </trkpt>
      <trkpt lat="47.22755" lon="0.01647">
        <ele>38</ele>
        <time>2021-02-20T11:54:02+01:00</time>
      </trkpt>
      <trkpt lat="47.2274" lon="0.01629">
        <ele>42</ele>
        <time>2021-02-20T11:54:07+01:00</time>
      </trkpt>
      <trkpt lat="47.22725" lon="0.01615">
        <ele>43</ele>
        <time>2021-02-20T11:54:12+01:00</time>
      </trkpt>
      <trkpt lat="47.22712" lon="0.01606">
        <ele>44</ele>
        <time>2021-02-20T11:54:17+01:00</time>
      </trkpt>
      <trkpt lat="47.22691" lon="0.01595">
        <ele>44</ele>
        <time>2021-02-20T11:54:22+01:00</time>
      </trkpt>
      <trkpt lat="47.22657" lon="0.0158">
        <ele>44</ele>
        <time>2021-02-20T11:54:27+01:00</time>
      </trkpt>
      <trkpt lat="47.22638" lon="0.01565">
        <ele>46</ele>
        <time>2021-02-20T11:54:32+01:00</time>
      </trkpt>
      <trkpt lat="47.2264" lon="0.01614">
        <ele>43</ele>
        <time>2021-02-20T11:54:37+01:00</time>
      </trkpt>
      <trkpt lat="47.2264" lon="0.0164">
        <ele>43</ele>
        <time>2021-02-20T11:54:42+01:00</time>
      </trkpt>
      <trkpt lat="47.22651" lon="0.01655">
        <ele>41</ele>
        <time>2021-02-20T11:54:47+01:00</time>
      </trkpt>
      <trkpt lat="47.2268" lon="0.01679">
        <ele>39</ele>
        <time>2021-02-20T11:54:52+01:00</time>
      </trkpt>
      <trkpt lat="47.22704" lon="0.017">
        <ele>38</ele>
        <time>2021-02-20T11:54:57+01:00</time>
      </trkpt>
      <trkpt lat="47.22708" lon="0.01709">
        <ele>38</ele>
        <time>2021-02-20T11:55:02+01:00</time>
      </trkpt>
      <trkpt lat="47.22676" lon="0.01774">
        <ele>46</ele>
        <time>2021-02-20T11:55:07+01:00</time>
      </trkpt>
      <trkpt lat="47.2268" lon="0.01805">
        <ele>49</ele>
        <time>2021-02-20T11:55:12+01:00</time>
      </trkpt>
      <trkpt lat="47.22685" lon="0.01816">
        <ele>49</ele>
        <time>2021-02-20T11:55:17+01:00</time>
      </trkpt>
      <trkpt lat="47.22686" lon="0.01831">
        <ele>51</ele>
        <time>2021-02-20T11:55:22+01:00</time>
      </trkpt>
      <trkpt lat="47.22686" lon="0.01851">
        <ele>51</ele>
        <time>2021-02-20T11:55:27+01:00</time>
      </trkpt>
      <trkpt lat="47.22677" lon="0.01873">
        <ele>53</ele>
        <time>2021-02-20T11:55:32+01:00</time>
      </trkpt>
      <trkpt lat="47.22669" lon="0.01883">
        <ele>55</ele>
        <time>2021-02-20T11:55:37+01:00</time>
      </trkpt>
      <trkpt lat="47.22664" lon="0.01889">
        <ele>56</ele>
        <time>2021-02-20T11:55:42+01:00</time>
      </trkpt>
      <trkpt lat="47.22659" lon="0.01891">
        <ele>57</ele>
        <time>2021-02-20T11:55:47+01:00</time>
      </trkpt>
      <trkpt lat="47.22651" lon="0.01888">
        <ele>58</ele>
        <time>2021-02-20T11:55:52+01:00</time>
      </trkpt>
      <trkpt lat="47.22635" lon="0.01878">
        <ele>60</ele>
        <time>2021-02-20T11:55:57+01:00</time>
      </trkpt>
      <trkpt lat="47.22623" lon="0.01867">
        <ele>61</ele>
        <time>2021-02-20T11:56:02+01:00</time>
      </trkpt>
      <trkpt lat="47.22611" lon="0.01859">
        <ele>63</ele>
        <time>2021-02-20T11:56:07+01:00</time>
      </trkpt>
      <trkpt lat="47.22556" lon="0.01844">
        <ele>65</ele>
        <time>2021-02-20T11:56:12+01:00</time>
      </trkpt>
      <trkpt lat="47.22512" lon="0.01817">
        <ele>64</ele>
        <time>2021-02-20T11:56:17+01:00</time>
      </trkpt>
      <trkpt lat="47.22479" lon="0.0179">
        <ele>65</ele>
        <time>2021-02-20T11:56:22+01:00</time>
      </trkpt>
      <trkpt lat="47.22449" lon="0.01764">
        <ele>65</ele>
        <time>2021-02-20T11:56:27+01:00</time>
      </trkpt>
      <trkpt lat="47.22414" lon="0.01745">
        <ele>65</ele>
        <time>2021-02-20T11:56:32+01:00</time>
      </trkpt>
      <trkpt lat="47.22378" lon="0.01726">
        <ele>66</ele>
        <time>2021-02-20T11:56:37+01:00</time>
      </trkpt>
      <trkpt lat="47.22348" lon="0.01707">
        <ele>67</ele>
        <time>2021-02-20T11:56:42+01:00</time>
      </trkpt>
      <trkpt lat="47.22303" lon="0.01674">
        <ele>68</ele>
        <time>2021-02-20T11:56:47+01:00</time>
      </trkpt>
      <trkpt lat="47.2226" lon="0.01645">
        <ele>69</ele>
        <time>2021-02-20T11:56:52+01:00</time>
      </trkpt>
      <trkpt lat="47.2223" lon="0.01626">
        <ele>70</ele>
        <time>2021-02-20T11:56:57+01:00</time>
      </trkpt>
      <trkpt lat="47.22207" lon="0.01615">
        <ele>70</ele>
        <time>2021-02-20T11:57:02+01:00</time>
      </trkpt>
      <trkpt lat="47.22187" lon="0.01602">
        <ele>71</ele>
        <time>2021-02-20T11:57:07+01:00</time>
      </trkpt>
      <trkpt lat="47.22152" lon="0.01577">
        <ele>72</ele>
        <time>2021-02-20T11:57:12+01:00</time>
      </trkpt>
      <trkpt lat="47.22071" lon="0.0151">
        <ele>75</ele>
        <time>2021-02-20T11:57:17+01:00</time>
      </trkpt>
      <trkpt lat="47.22037" lon="0.01489">
        <ele>75</ele>
        <time>2021-02-20T11:57:22+01:00</time>
      </trkpt>
      <trkpt lat="47.22022" lon="0.01485">
        <ele>76</ele>
        <time>2021-02-20T11:57:27+01:00</time>
      </trkpt>
      <trkpt lat="47.22011" lon="0.01486">
        <ele>76</ele>
        <time>2021-02-20T11:57:32+01:00</time>
      </trkpt>
      <trkpt lat="47.21994" lon="0.01484">
        <ele>77</ele>
        <time>2021-02-20T11:57:37+01:00</time>
      </trkpt>
      <trkpt lat="47.21977" lon="0.01483">
        <ele>77</ele>
        <time>2021-02-20T11:57:42+01:00</time>
      </trkpt>
      <trkpt lat="47.21964" lon="0.01478">
        <ele>77</ele>
        <time>2021-02-20T11:57:47+01:00</time>
      </trkpt>
      <trkpt lat="47.21941" lon="0.01471">
        <ele>77</ele>
        <time>2021-02-20T11:57:52+01:00</time>
      </trkpt>
      <trkpt lat="47.2192" lon="0.01466">
        <ele>77</ele>
        <time>2021-02-20T11:57:57+01:00</time>
      </trkpt>
      <trkpt lat="47.21893" lon="0.01455">
        <ele>77</ele>
        <time>2021-02-20T11:58:02+01:00</time>
      </trkpt>
      <trkpt lat="47.21872" lon="0.01448">
        <ele>76</ele>
        <time>2021-02-20T11:58:07+01:00</time>
      </trkpt>
      <trkpt lat="47.21843" lon="0.01439">
        <ele>76</ele>
        <time>2021-02-20T11:58:12+01:00</time>
      </trkpt>
      <trkpt lat="47.21819" lon="0.01441">
        <ele>76</ele>
        <time>2021-02-20T11:58:17+01:00</time>
      </trkpt>
      <trkpt lat="47.21808" lon="0.01442">
        <ele>77</ele>
        <time>2021-02-20T11:58:22+01:00</time>
      </trkpt>
      <trkpt lat="47.21797" lon="0.01438">
        <ele>77</ele>
        <time>2021-02-20T11:58:27+01:00</time>
      </trkpt>
      <trkpt lat="47.21793" lon="0.01434">
        <ele>77</ele>
        <time>2021-02-20T11:58:32+01:00</time>
      </trkpt>
      <trkpt lat="47.21764" lon="0.01462">
        <ele>78</ele>
        <time>2021-02-20T11:58:37+01:00</time>
      </trkpt>
      <trkpt lat="47.21756" lon="0.01463">
        <ele>78</ele>
        <time>2021-02-20T11:58:42+01:00</time>
      </trkpt>
      <trkpt lat="47.21736" lon="0.01467">
        <ele>78</ele>
        <time>2021-02-20T11:58:47+01:00</time>
      </trkpt>
      <trkpt lat="47.21716" lon="0.01467">
        <ele>78</ele>
        <time>2021-02-20T11:58:52+01:00</time>
      </trkpt>
      <trkpt lat="47.21695" lon="0.01466">
        <ele>79</ele>
        <time>2021-02-20T11:58:57+01:00</time>
      </trkpt>
      <trkpt lat="47.21677" lon="0.01466">
        <ele>79</ele>
        <time>2021-02-20T11:59:02+01:00</time>
      </trkpt>
      <trkpt lat="47.21658" lon="0.01465">
        <ele>79</ele>
        <time>2021-02-20T11:59:07+01:00</time>
      </trkpt>
      <trkpt lat="47.21633" lon="0.01464">
        <ele>79</ele>
        <time>2021-02-20T11:59:12+01:00</time>
      </trkpt>
      <trkpt lat="47.21609" lon="0.01464">
        <ele>80</ele>
        <time>2021-02-20T11:59:17+01:00</time>
      </trkpt>
      <trkpt lat="47.21588" lon="0.01464">
        <ele>80</ele>
        <time>2021-02-20T11:59:22+01:00</time>
      </trkpt>
      <trkpt lat="47.21541" lon="0.0145">
        <ele>81</ele>
        <time>2021-02-20T11:59:27+01:00</time>
      </trkpt>
      <trkpt lat="47.21532" lon="0.01449">
        <ele>81</ele>
        <time>2021-02-20T11:59:32+01:00</time>
      </trkpt>
      <trkpt lat="47.21507" lon="0.01447">
        <ele>81</ele>
        <time>2021-02-20T11:59:37+01:00</time>
      </trkpt>
      <trkpt lat="47.21505" lon="0.01447">
        <ele>81</ele>
        <time>2021-02-20T11:59:42+01:00</time>
      </trkpt>
      <trkpt lat="47.2149" lon="0.01449">
        <ele>81</ele>
        <time>2021-02-20T11:59:47+01:00</time>
      </trkpt>
      <trkpt lat="47.21477" lon="0.01451">
        <ele>82</ele>
        <time>2021-02-20T11:59:52+01:00</time>
      </trkpt>
      <trkpt lat="47.2146" lon="0.01448">
        <ele>82</ele>
        <time>2021-02-20T11:59:57+01:00</time>
      </trkpt>
      <trkpt lat="47.21451" lon="0.01445">
        <ele>82</ele>
        <time>2021-02-20T12:00:02+01:00</time>
      </trkpt>
      <trkpt lat="47.21444" lon="0.01441">
        <ele>82</ele>
        <time>2021-02-20T12:00:07+01:00</time>
      </trkpt>
      <trkpt lat="47.21426" lon="0.01428">
        <ele>83</ele>
        <time>2021-02-20T12:00:12+01:00</time>
      </trkpt>
      <trkpt lat="47.21397" lon="0.01402">
        <ele>85</ele>
        <time>2021-02-20T12:00:17+01:00</time>
      </trkpt>
      <trkpt lat="47.2138" lon="0.01384">
        <ele>87</ele>
        <time>2021-02-20T12:00:22+01:00</time>
      </trkpt>
      <trkpt lat="47.21376" lon="0.01372">
        <ele>88</ele>
        <time>2021-02-20T12:00:27+01:00</time>
      </trkpt>
      <trkpt lat="47.21367" lon="0.0136">
        <ele>89</ele>
        <time>2021-02-20T12:00:32+01:00</time>
      </trkpt>
      <trkpt lat="47.21361" lon="0.01345">
        <ele>90</ele>
        <time>2021-02-20T12:00:37+01:00</time>
      </trkpt>
      <trkpt lat="47.21349" lon="0.01335">
        <ele>91</ele>
        <time>2021-02-20T12:00:42+01:00</time>
      </trkpt>
      <trkpt lat="47.21299" lon="0.01298">
        <ele>92</ele>
        <time>2021-02-20T12:00:47+01:00</time>
      </trkpt>
      <trkpt lat="47.21243" lon="0.01241">
        <ele>93</ele>
        <time>2021-02-20T12:00:52+01:00</time>
      </trkpt>
      <trkpt lat="47.21218" lon="0.01217">
        <ele>94</ele>
        <time>2021-02-20T12:00:57+01:00</time>
      </trkpt>
      <trkpt lat="47.21195" lon="0.01197">
        <ele>95</ele>
        <time>2021-02-20T12:01:02+01:00</time>
      </trkpt>
      <trkpt lat="47.21159" lon="0.01169">
        <ele>96</ele>
        <time>2021-02-20T12:01:07+01:00</time>
      </trkpt>
      <trkpt lat="47.21146" lon="0.01159">
        <ele>96</ele>
        <time>2021-02-20T12:01:12+01:00</time>
      </trkpt>
      <trkpt lat="47.21132" lon="0.01152">
        <ele>96</ele>
        <time>2021-02-20T12:01:17+01:00</time>
      </trkpt>
      <trkpt lat="47.21099" lon="0.01135">
        <ele>96</ele>
        <time>2021-02-20T12:01:22+01:00</time>
      </trkpt>
      <trkpt lat="47.21078" lon="0.01113">
        <ele>96</ele>
        <time>2021-02-20T12:01:27+01:00</time>
      </trkpt>
      <trkpt lat="47.21046" lon="0.01079">
        <ele>96</ele>
        <time>2021-02-20T12:01:32+01:00</time>
      </trkpt>
      <trkpt lat="47.21002" lon="0.01034">
        <ele>96</ele>
        <time>2021-02-20T12:01:37+01:00</time>
      </trkpt>
      <trkpt lat="47.20972" lon="0.01003">
        <ele>97</ele>
        <time>2021-02-20T12:01:42+01:00</time>
      </trkpt>
      <trkpt lat="47.20909" lon="0.00935">
        <ele>99</ele>
        <time>2021-02-20T12:01:47+01:00</time>
      </trkpt>
      <trkpt lat="47.20883" lon="0.00907">
        <ele>100</ele>
        <time>2021-02-20T12:01:52+01:00</time>
      </trkpt>
      <trkpt lat="47.20866" lon="0.0089">
        <ele>100</ele>
        <time>2021-02-20T12:01:57+01:00</time>
      </trkpt>
      <trkpt lat="47.20837" lon="0.00858">
        <ele>101</ele>
        <time>2021-02-20T12:02:02+01:00</time>
      </trkpt>
      <trkpt lat="47.20814" lon="0.00829">
        <ele>101</ele>
        <time>2021-02-20T12:02:07+01:00</time>
      </trkpt>
      <trkpt lat="47.20787" lon="0.00803">
        <ele>102</ele>
        <time>2021-02-20T12:02:12+01:00</time>
      </trkpt>
      <trkpt lat="47.2077" lon="0.0078">
        <ele>102</ele>
        <time>2021-02-20T12:02:17+01:00</time>
      </trkpt>
      <trkpt lat="47.20723" lon="0.00696">
        <ele>100</ele>
        <time>2021-02-20T12:02:22+01:00</time>
      </trkpt>
      <trkpt lat="47.20691" lon="0.00654">
        <ele>99</ele>
        <time>2021-02-20T12:02:27+01:00</time>
      </trkpt>
      <trkpt lat="47.20679" lon="0.00642">
        <ele>99</ele>
        <time>2021-02-20T12:02:32+01:00</time>
      </trkpt>
      <trkpt lat="47.20649" lon="0.00601">
        <ele>99</ele>
        <time>2021-02-20T12:02:37+01:00</time>
      </trkpt>
      <trkpt lat="47.20621" lon="0.00568">
        <ele>100</ele>
        <time>2021-02-20T12:02:42+01:00</time>
      </trkpt>
      <trkpt lat="47.20581" lon="0.00523">
        <ele>101</ele>
        <time>2021-02-20T12:02:47+01:00</time>
      </trkpt>
      <trkpt lat="47.20541" lon="0.0048">
        <ele>102</ele>
        <time>2021-02-20T12:02:52+01:00</time>
      </trkpt>
      <trkpt lat="47.20552" lon="0.00455">
        <ele>103</ele>
        <time>2021-02-20T12:02:57+01:00</time>
      </trkpt>
      <trkpt lat="47.2057" lon="0.00424">
        <ele>104</ele>
        <time>2021-02-20T12:03:02+01:00</time>
      </trkpt>
      <trkpt lat="47.20579" lon="0.00404">
        <ele>104</ele>
        <time>2021-02-20T12:03:07+01:00</time>
      </trkpt>
      <trkpt lat="47.20585" lon="0.00393">
        <ele>104</ele>
        <time>2021-02-20T12:03:12+01:00</time>
      </trkpt>
      <trkpt lat="47.20591" lon="0.00388">
        <ele>103</ele>
        <time>2021-02-20T12:03:17+01:00</time>
      </trkpt>
      <trkpt lat="47.20596" lon="0.00378">
        <ele>103</ele>
        <time>2021-02-20T12:03:22+01:00</time>
      </trkpt>
      <trkpt lat="47.20603" lon="0.00365">
        <ele>103</ele>
        <time>2021-02-20T12:03:27+01:00</time>
      </trkpt>
      <trkpt lat="47.20616" lon="0.0035">
        <ele>102</ele>
        <time>2021-02-20T12:03:32+01:00</time>
      </trkpt>
      <trkpt lat="47.20624" lon="0.0034">
        <ele>101</ele>
        <time>2021-02-20T12:03:37+01:00</time>
      </trkpt>
      <trkpt lat="47.20631" lon="0.00329">
        <ele>101</ele>
        <time>2021-02-20T12:03:42+01:00</time>
      </trkpt>
      <trkpt lat="47.20644" lon="0.00302">
        <ele>100</ele>
        <time>2021-02-20T12:03:47+01:00</time>
      </trkpt>
      <trkpt lat="47.20446" lon="0.00134">
        <ele>96</ele>
        <time>2021-02-20T12:03:52+01:00</time>
      </trkpt>
      <trkpt lat="47.20438" lon="0.0012">
        <ele>95</ele>
        <time>2021-02-20T12:03:57+01:00</time>
      </trkpt>
      <trkpt lat="47.20442" lon="0.00103">
        <ele>95</ele>
        <time>2021-02-20T12:04:02+01:00</time>
      </trkpt>
      <trkpt lat="47.20468" lon="0.00039">
        <ele>92</ele>
        <time>2021-02-20T12:04:07+01:00</time>
      </trkpt>
      <trkpt lat="47.2051" lon="-0.00073">
        <ele>90</ele>
        <time>2021-02-20T12:04:12+01:00</time>
      </trkpt>
      <trkpt lat="47.20555" lon="-0.0018">
        <ele>92</ele>
        <time>2021-02-20T12:04:17+01:00</time>
      </trkpt>
      <trkpt lat="47.20618" lon="-0.00353">
        <ele>91</ele>
        <time>2021-02-20T12:04:22+01:00</time>
      </trkpt>
      <trkpt lat="47.20685" lon="-0.00521">
        <ele>92</ele>
        <time>2021-02-20T12:04:27+01:00</time>
      </trkpt>
      <trkpt lat="47.20693" lon="-0.00544">
        <ele>92</ele>
        <time>2021-02-20T12:04:32+01:00</time>
      </trkpt>
      <trkpt lat="47.20698" lon="-0.00564">
        <ele>91</ele>
        <time>2021-02-20T12:04:37+01:00</time>
      </trkpt>
      <trkpt lat="47.20691" lon="-0.00685">
        <ele>88</ele>
        <time>2021-02-20T12:04:42+01:00</time>
      </trkpt>
      <trkpt lat="47.20695" lon="-0.00709">
        <ele>88</ele>
        <time>2021-02-20T12:04:47+01:00</time>
      </trkpt>
      <trkpt lat="47.20708" lon="-0.00718">
        <ele>88</ele>
        <time>2021-02-20T12:04:52+01:00</time>
      </trkpt>
      <trkpt lat="47.20789" lon="-0.00738">
        <ele>89</ele>
        <time>2021-02-20T12:04:57+01:00</time>
      </trkpt>
      <trkpt lat="47.20823" lon="-0.00754">
        <ele>88</ele>
        <time>2021-02-20T12:05:02+01:00</time>
      </trkpt>
      <trkpt lat="47.20858" lon="-0.00761">
        <ele>88</ele>
        <time>2021-02-20T12:05:07+01:00</time>
      </trkpt>
      <trkpt lat="47.20917" lon="-0.00782">
        <ele>87</ele>
        <time>2021-02-20T12:05:12+01:00</time>
      </trkpt>
      <trkpt lat="47.20949" lon="-0.0079">
        <ele>87</ele>
        <time>2021-02-20T12:05:17+01:00</time>
      </trkpt>
      <trkpt lat="47.20965" lon="-0.00797">
        <ele>87</ele>
        <time>2021-02-20T12:05:22+01:00</time>
      </trkpt>
      <trkpt lat="47.20977" lon="-0.00796">
        <ele>88</ele>
        <time>2021-02-20T12:05:27+01:00</time>
      </trkpt>
      <trkpt lat="47.21048" lon="-0.0082">
        <ele>87</ele>
        <time>2021-02-20T12:05:32+01:00</time>
      </trkpt>
      <trkpt lat="47.21119" lon="-0.00837">
        <ele>86</ele>
        <time>2021-02-20T12:05:37+01:00</time>
      </trkpt>
      <trkpt lat="47.21223" lon="-0.00864">
        <ele>86</ele>
        <time>2021-02-20T12:05:42+01:00</time>
      </trkpt>
      <trkpt lat="47.21353" lon="-0.00895">
        <ele>88</ele>
        <time>2021-02-20T12:05:47+01:00</time>
      </trkpt>
      <trkpt lat="47.21363" lon="-0.00938">
        <ele>89</ele>
        <time>2021-02-20T12:05:52+01:00</time>
      </trkpt>
      <trkpt lat="47.21364" lon="-0.00959">
        <ele>88</ele>
        <time>2021-02-20T12:05:57+01:00</time>
      </trkpt>
      <trkpt lat="47.21372" lon="-0.01014">
        <ele>88</ele>
        <time>2021-02-20T12:06:02+01:00</time>
      </trkpt>
      <trkpt lat="47.21392" lon="-0.01127">
        <ele>89</ele>
        <time>2021-02-20T12:06:07+01:00</time>
      </trkpt>
      <trkpt lat="47.21394" lon="-0.01136">
        <ele>89</ele>
        <time>2021-02-20T12:06:12+01:00</time>
      </trkpt>
      <trkpt lat="47.2141" lon="-0.01133">
        <ele>89</ele>
        <time>2021-02-20T12:06:17+01:00</time>
      </trkpt>
      <trkpt lat="47.21539" lon="-0.01062">
        <ele>91</ele>
        <time>2021-02-20T12:06:22+01:00</time>
      </trkpt>
      <trkpt lat="47.21582" lon="-0.0104">
        <ele>92</ele>
        <time>2021-02-20T12:06:27+01:00</time>
      </trkpt>
      <trkpt lat="47.21624" lon="-0.01023">
        <ele>91</ele>
        <time>2021-02-20T12:06:32+01:00</time>
      </trkpt>
      <trkpt lat="47.21682" lon="-0.01">
        <ele>90</ele>
        <time>2021-02-20T12:06:37+01:00</time>
      </trkpt>
      <trkpt lat="47.21748" lon="-0.00976">
        <ele>91</ele>
        <time>2021-02-20T12:06:42+01:00</time>
      </trkpt>
      <trkpt lat="47.2182" lon="-0.00953">
        <ele>91</ele>
        <time>2021-02-20T12:06:47+01:00</time>
      </trkpt>
      <trkpt lat="47.21873" lon="-0.00926">
        <ele>91</ele>
        <time>2021-02-20T12:06:52+01:00</time>
      </trkpt>
      <trkpt lat="47.21889" lon="-0.00918">
        <ele>91</ele>
        <time>2021-02-20T12:06:57+01:00</time>
      </trkpt>
      <trkpt lat="47.21908" lon="-0.00914">
        <ele>91</ele>
        <time>2021-02-20T12:07:02+01:00</time>
      </trkpt>
      <trkpt lat="47.21924" lon="-0.00905">
        <ele>91</ele>
        <time>2021-02-20T12:07:07+01:00</time>
      </trkpt>
      <trkpt lat="47.21978" lon="-0.00878">
        <ele>90</ele>
        <time>2021-02-20T12:07:12+01:00</time>
      </trkpt>
      <trkpt lat="47.22033" lon="-0.00849">
        <ele>91</ele>
        <time>2021-02-20T12:07:17+01:00</time>
      </trkpt>
      <trkpt lat="47.22112" lon="-0.00816">
        <ele>93</ele>
        <time>2021-02-20T12:07:22+01:00</time>
      </trkpt>
      <trkpt lat="47.22199" lon="-0.00765">
        <ele>94</ele>
        <time>2021-02-20T12:07:27+01:00</time>
      </trkpt>
      <trkpt lat="47.22221" lon="-0.0075">
        <ele>94</ele>
        <time>2021-02-20T12:07:32+01:00</time>
      </trkpt>
      <trkpt lat="47.22245" lon="-0.00746">
        <ele>95</ele>
        <time>2021-02-20T12:07:37+01:00</time>
      </trkpt>
      <trkpt lat="47.22252" lon="-0.00736">
        <ele>95</ele>
        <time>2021-02-20T12:07:42+01:00</time>
      </trkpt>
      <trkpt lat="47.2226" lon="-0.00734">
        <ele>95</ele>
        <time>2021-02-20T12:07:47+01:00</time>
      </trkpt>
      <trkpt lat="47.22273" lon="-0.0073">
        <ele>95</ele>
        <time>2021-02-20T12:07:52+01:00</time>
      </trkpt>
      <trkpt lat="47.22297" lon="-0.00719">
        <ele>96</ele>
        <time>2021-02-20T12:07:57+01:00</time>
      </trkpt>
      <trkpt lat="47.22307" lon="-0.00709">
        <ele>96</ele>
        <time>2021-02-20T12:08:02+01:00</time>
      </trkpt>
      <trkpt lat="47.22327" lon="-0.007">
        <ele>97</ele>
        <time>2021-02-20T12:08:07+01:00</time>
      </trkpt>
      <trkpt lat="47.22385" lon="-0.00671">
        <ele>95</ele>
        <time>2021-02-20T12:08:12+01:00</time>
      </trkpt>
      <trkpt lat="47.22419" lon="-0.00651">
        <ele>93</ele>
        <time>2021-02-20T12:08:17+01:00</time>
      </trkpt>
      <trkpt lat="47.22453" lon="-0.00635">
        <ele>86</ele>
        <time>2021-02-20T12:08:22+01:00</time>
      </trkpt>
      <trkpt lat="47.22507" lon="-0.00606">
        <ele>77</ele>
        <time>2021-02-20T12:08:27+01:00</time>
      </trkpt>
      <trkpt lat="47.22533" lon="-0.00584">
        <ele>73</ele>
        <time>2021-02-20T12:08:32+01:00</time>
      </trkpt>
      <trkpt lat="47.22549" lon="-0.00572">
        <ele>70</ele>
        <time>2021-02-20T12:08:37+01:00</time>
      </trkpt>
      <trkpt lat="47.22608" lon="-0.00537">
        <ele>63</ele>
        <time>2021-02-20T12:08:42+01:00</time>
      </trkpt>
      <trkpt lat="47.22657" lon="-0.00512">
        <ele>61</ele>
        <time>2021-02-20T12:08:47+01:00</time>
      </trkpt>
      <trkpt lat="47.22678" lon="-0.00501">
        <ele>60</ele>
        <time>2021-02-20T12:08:52+01:00</time>
      </trkpt>
      <trkpt lat="47.22725" lon="-0.00489">
        <ele>59</ele>
        <time>2021-02-20T12:08:57+01:00</time>
      </trkpt>
      <trkpt lat="47.22782" lon="-0.00475">
        <ele>58</ele>
        <time>2021-02-20T12:09:02+01:00</time>
      </trkpt>
      <trkpt lat="47.22797" lon="-0.00472">
        <ele>58</ele>
        <time>2021-02-20T12:09:07+01:00</time>
      </trkpt>
      <trkpt lat="47.22834" lon="-0.00453">
        <ele>58</ele>
        <time>2021-02-20T12:09:12+01:00</time>
      </trkpt>
      <trkpt lat="47.22953" lon="-0.00381">
        <ele>57</ele>
        <time>2021-02-20T12:09:17+01:00</time>
      </trkpt>
      <trkpt lat="47.23053" lon="-0.00325">
        <ele>56</ele>
        <time>2021-02-20T12:09:22+01:00</time>
      </trkpt>
      <trkpt lat="47.23106" lon="-0.00292">
        <ele>56</ele>
        <time>2021-02-20T12:09:27+01:00</time>
      </trkpt>
      <trkpt lat="47.23114" lon="-0.00288">
        <ele>56</ele>
        <time>2021-02-20T12:09:32+01:00</time>
      </trkpt>
      <trkpt lat="47.2313" lon="-0.00276">
        <ele>56</ele>
        <time>2021-02-20T12:09:37+01:00</time>
      </trkpt>
      <trkpt lat="47.23156" lon="-0.0026">
        <ele>56</ele>
        <time>2021-02-20T12:09:42+01:00</time>
      </trkpt>
      <trkpt lat="47.23168" lon="-0.00252">
        <ele>56</ele>
        <time>2021-02-20T12:09:47+01:00</time>
      </trkpt>
      <trkpt lat="47.23234" lon="-0.00203">
        <ele>55</ele>
        <time>2021-02-20T12:09:52+01:00</time>
      </trkpt>
      <trkpt lat="47.23253" lon="-0.00189">
        <ele>54</ele>
        <time>2021-02-20T12:09:57+01:00</time>
      </trkpt>
      <trkpt lat="47.23301" lon="-0.00167">
        <ele>54</ele>
        <time>2021-02-20T12:10:02+01:00</time>
      </trkpt>
      <trkpt lat="47.23347" lon="-0.00147">
        <ele>53</ele>
        <time>2021-02-20T12:10:07+01:00</time>
      </trkpt>
      <trkpt lat="47.23373" lon="-0.00135">
        <ele>51</ele>
        <time>2021-02-20T12:10:12+01:00</time>
      </trkpt>
      <trkpt lat="47.23416" lon="-0.00109">
        <ele>46</ele>
        <time>2021-02-20T12:10:17+01:00</time>
      </trkpt>
      <trkpt lat="47.23425" lon="-0.00105">
        <ele>44</ele>
        <time>2021-02-20T12:10:22+01:00</time>
      </trkpt>
      <trkpt lat="47.23435" lon="-0.001">
        <ele>42</ele>
        <time>2021-02-20T12:10:27+01:00</time>
      </trkpt>
      <trkpt lat="47.23442" lon="-0.00118">
        <ele>42</ele>
        <time>2021-02-20T12:10:32+01:00</time>
      </trkpt>
      <trkpt lat="47.23467" lon="-0.00193">
        <ele>42</ele>
        <time>2021-02-20T12:10:37+01:00</time>
      </trkpt>
      <trkpt lat="47.23487" lon="-0.00248">
        <ele>41</ele>
        <time>2021-02-20T12:10:42+01:00</time>
      </trkpt>
      <trkpt lat="47.23488" lon="-0.0025">
        <ele>41</ele>
        <time>2021-02-20T12:10:47+01:00</time>
      </trkpt>
      <trkpt lat="47.23492" lon="-0.0026">
        <ele>41</ele>
        <time>2021-02-20T12:10:52+01:00</time>
      </trkpt>
      <trkpt lat="47.23494" lon="-0.00258">
        <ele>41</ele>
        <time>2021-02-20T12:10:57+01:00</time>
      </trkpt>
      <trkpt lat="47.23495" lon="-0.00253">
        <ele>41</ele>
        <time>2021-02-20T12:11:02+01:00</time>
      </trkpt>
      <trkpt lat="47.23493" lon="-0.00231">
        <ele>40</ele>
        <time>2021-02-20T12:11:07+01:00</time>
      </trkpt>
      <trkpt lat="47.23488" lon="-0.00215">
        <ele>39</ele>
        <time>2021-02-20T12:11:12+01:00</time>
      </trkpt>
      <trkpt lat="47.23486" lon="-0.00199">
        <ele>39</ele>
        <time>2021-02-20T12:11:17+01:00</time>
      </trkpt>
      <trkpt lat="47.23491" lon="-0.00193">
        <ele>38</ele>
        <time>2021-02-20T12:11:22+01:00</time>
      </trkpt>
      <trkpt lat="47.235" lon="-0.00188">
        <ele>36</ele>
        <time>2021-02-20T12:11:27+01:00</time>
      </trkpt>
      <trkpt lat="47.23447" lon="5.0E-5">
        <ele>35</ele>
        <time>2021-02-20T12:11:32+01:00</time>
      </trkpt>
      <trkpt lat="47.23426" lon="0.0008">
        <ele>34</ele>
        <time>2021-02-20T12:11:37+01:00</time>
      </trkpt>
      <trkpt lat="47.23407" lon="0.00149">
        <ele>34</ele>
        <time>2021-02-20T12:11:42+01:00</time>
      </trkpt>
      <trkpt lat="47.23365" lon="0.00127">
        <ele>38</ele>
        <time>2021-02-20T12:11:47+01:00</time>
      </trkpt>
      <trkpt lat="47.23353" lon="0.00186">
        <ele>41</ele>
        <time>2021-02-20T12:11:52+01:00</time>
      </trkpt>
      <trkpt lat="47.23348" lon="0.0022">
        <ele>41</ele>
        <time>2021-02-20T12:11:57+01:00</time>
      </trkpt>
      <trkpt lat="47.23336" lon="0.00261">
        <ele>43</ele>
        <time>2021-02-20T12:12:02+01:00</time>
      </trkpt>
      <trkpt lat="47.23331" lon="0.00278">
        <ele>42</ele>
        <time>2021-02-20T12:12:07+01:00</time>
      </trkpt>
      <trkpt lat="47.23326" lon="0.00291">
        <ele>42</ele>
        <time>2021-02-20T12:12:12+01:00</time>
      </trkpt>
      <trkpt lat="47.23314" lon="0.0033">
        <ele>42</ele>
        <time>2021-02-20T12:12:17+01:00</time>
      </trkpt>
      <trkpt lat="47.23304" lon="0.00366">
        <ele>42</ele>
        <time>2021-02-20T12:12:22+01:00</time>
      </trkpt>
      <trkpt lat="47.23295" lon="0.00396">
        <ele>42</ele>
        <time>2021-02-20T12:12:27+01:00</time>
      </trkpt>
      <trkpt lat="47.2329" lon="0.00413">
        <ele>42</ele>
        <time>2021-02-20T12:12:32+01:00</time>
      </trkpt>
      <trkpt lat="47.23281" lon="0.00453">
        <ele>43</ele>
        <time>2021-02-20T12:12:37+01:00</time>
      </trkpt>
      <trkpt lat="47.23272" lon="0.00499">
        <ele>44</ele>
        <time>2021-02-20T12:12:42+01:00</time>
      </trkpt>
      <trkpt lat="47.23267" lon="0.00527">
        <ele>44</ele>
        <time>2021-02-20T12:12:47+01:00</time>
      </trkpt>
      <trkpt lat="47.23258" lon="0.00549">
        <ele>45</ele>
        <time>2021-02-20T12:12:52+01:00</time>
      </trkpt>
      <trkpt lat="47.23257" lon="0.00561">
        <ele>45</ele>
        <time>2021-02-20T12:12:57+01:00</time>
      </trkpt>
      <trkpt lat="47.23249" lon="0.00575">
        <ele>46</ele>
        <time>2021-02-20T12:13:02+01:00</time>
      </trkpt>
      <trkpt lat="47.23248" lon="0.00584">
        <ele>45</ele>
        <time>2021-02-20T12:13:07+01:00</time>
      </trkpt>
      <trkpt lat="47.23239" lon="0.00608">
        <ele>45</ele>
        <time>2021-02-20T12:13:12+01:00</time>
      </trkpt>
      <trkpt lat="47.23228" lon="0.00635">
        <ele>46</ele>
        <time>2021-02-20T12:13:17+01:00</time>
      </trkpt>
      <trkpt lat="47.23226" lon="0.00621">
        <ele>47</ele>
        <time>2021-02-20T12:13:22+01:00</time>
      </trkpt>
      <trkpt lat="47.23221" lon="0.00627">
        <ele>48</ele>
        <time>2021-02-20T12:13:27+01:00</time>
      </trkpt>
      <trkpt lat="47.23215" lon="0.0063">
        <ele>49</ele>
        <time>2021-02-20T12:13:32+01:00</time>
      </trkpt>
      <trkpt lat="47.23211" lon="0.00628">
        <ele>50</ele>
        <time>2021-02-20T12:13:37+01:00</time>
      </trkpt>
      <trkpt lat="47.23208" lon="0.0062">
        <ele>51</ele>
        <time>2021-02-20T12:13:42+01:00</time>
      </trkpt>
      <trkpt lat="47.23208" lon="0.00623">
        <ele>51</ele>
        <time>2021-02-20T12:13:47+01:00</time>
      </trkpt>
      <trkpt lat="47.23207" lon="0.00633">
        <ele>51</ele>
        <time>2021-02-20T12:13:52+01:00</time>
      </trkpt>
      <trkpt lat="47.23201" lon="0.00638">
        <ele>52</ele>
        <time>2021-02-20T12:13:57+01:00</time>
      </trkpt>
      <trkpt lat="47.23197" lon="0.00637">
        <ele>53</ele>
        <time>2021-02-20T12:14:02+01:00</time>
      </trkpt>
      <trkpt lat="47.23196" lon="0.00655">
        <ele>53</ele>
        <time>2021-02-20T12:14:07+01:00</time>
      </trkpt>
      <trkpt lat="47.2319" lon="0.00695">
        <ele>52</ele>
        <time>2021-02-20T12:14:12+01:00</time>
      </trkpt>
      <trkpt lat="47.23169" lon="0.0077">
        <ele>53</ele>
        <time>2021-02-20T12:14:17+01:00</time>
      </trkpt>
      <trkpt lat="47.23162" lon="0.00796">
        <ele>53</ele>
        <time>2021-02-20T12:14:22+01:00</time>
      </trkpt>
      <trkpt lat="47.23154" lon="0.00802">
        <ele>53</ele>
        <time>2021-02-20T12:14:27+01:00</time>
      </trkpt>
      <trkpt lat="47.23141" lon="0.00794">
        <ele>55</ele>
        <time>2021-02-20T12:14:32+01:00</time>
      </trkpt>
      <trkpt lat="47.23124" lon="0.0079">
        <ele>56</ele>
        <time>2021-02-20T12:14:37+01:00</time>
      </trkpt>
      <trkpt lat="47.23116" lon="0.00804">
        <ele>57</ele>
        <time>2021-02-20T12:14:42+01:00</time>
      </trkpt>
      <trkpt lat="47.23115" lon="0.00812">
        <ele>57</ele>
        <time>2021-02-20T12:14:47+01:00</time>
      </trkpt>
      <trkpt lat="47.23116" lon="0.00823">
        <ele>56</ele>
        <time>2021-02-20T12:14:52+01:00</time>
      </trkpt>
      <trkpt lat="47.23118" lon="0.00835">
        <ele>56</ele>
        <time>2021-02-20T12:14:57+01:00</time>
      </trkpt>
      <trkpt lat="47.23115" lon="0.00862">
        <ele>55</ele>
        <time>2021-02-20T12:15:02+01:00</time>
      </trkpt>
      <trkpt lat="47.23112" lon="0.00888">
        <ele>55</ele>
        <time>2021-02-20T12:15:07+01:00</time>
      </trkpt>
      <trkpt lat="47.23112" lon="0.00917">
        <ele>54</ele>
        <time>2021-02-20T12:15:12+01:00</time>
      </trkpt>
      <trkpt lat="47.23114" lon="0.00934">
        <ele>53</ele>
        <time>2021-02-20T12:15:17+01:00</time>
      </trkpt>
      <trkpt lat="47.23115" lon="0.00942">
        <ele>53</ele>
        <time>2021-02-20T12:15:22+01:00</time>
      </trkpt>
      <trkpt lat="47.23116" lon="0.00978">
        <ele>51</ele>
        <time>2021-02-20T12:15:27+01:00</time>
      </trkpt>
      <trkpt lat="47.23113" lon="0.01">
        <ele>51</ele>
        <time>2021-02-20T12:15:32+01:00</time>
      </trkpt>
      <trkpt lat="47.23107" lon="0.0102">
        <ele>51</ele>
        <time>2021-02-20T12:15:37+01:00</time>
      </trkpt>
      <trkpt lat="47.23099" lon="0.01051">
        <ele>51</ele>
        <time>2021-02-20T12:15:42+01:00</time>
      </trkpt>
      <trkpt lat="47.2309" lon="0.01098">
        <ele>49</ele>
        <time>2021-02-20T12:15:47+01:00</time>
      </trkpt>
      <trkpt lat="47.23086" lon="0.01111">
        <ele>48</ele>
        <time>2021-02-20T12:15:52+01:00</time>
      </trkpt>
      <trkpt lat="47.23082" lon="0.01127">
        <ele>46</ele>
        <time>2021-02-20T12:15:57+01:00</time>
      </trkpt>
      <trkpt lat="47.23079" lon="0.01138">
        <ele>46</ele>
        <time>2021-02-20T12:16:02+01:00</time>
      </trkpt>
      <trkpt lat="47.23075" lon="0.01146">
        <ele>45</ele>
        <time>2021-02-20T12:16:07+01:00</time>
      </trkpt>
      <trkpt lat="47.23073" lon="0.01154">
        <ele>45</ele>
        <time>2021-02-20T12:16:12+01:00</time>
      </trkpt>
      <trkpt lat="47.23071" lon="0.01162">
        <ele>44</ele>
        <time>2021-02-20T12:16:17+01:00</time>
      </trkpt>
      <trkpt lat="47.23072" lon="0.01172">
        <ele>43</ele>
        <time>2021-02-20T12:16:22+01:00</time>
      </trkpt>
      <trkpt lat="47.23076" lon="0.01175">
        <ele>42</ele>
        <time>2021-02-20T12:16:27+01:00</time>
      </trkpt>
      <trkpt lat="47.23077" lon="0.01179">
        <ele>41</ele>
        <time>2021-02-20T12:16:32+01:00</time>
      </trkpt>
      <trkpt lat="47.23087" lon="0.0117">
        <ele>40</ele>
        <time>2021-02-20T12:16:37+01:00</time>
      </trkpt>
      <trkpt lat="47.23091" lon="0.0116">
        <ele>41</ele>
        <time>2021-02-20T12:16:42+01:00</time>
      </trkpt>
      <trkpt lat="47.23096" lon="0.01143">
        <ele>42</ele>
        <time>2021-02-20T12:16:47+01:00</time>
      </trkpt>
      <trkpt lat="47.23109" lon="0.01109">
        <ele>44</ele>
        <time>2021-02-20T12:16:52+01:00</time>
      </trkpt>
      <trkpt lat="47.23117" lon="0.01096">
        <ele>43</ele>
        <time>2021-02-20T12:16:57+01:00</time>
      </trkpt>
      <trkpt lat="47.23125" lon="0.01084">
        <ele>42</ele>
        <time>2021-02-20T12:17:02+01:00</time>
      </trkpt>
    </trkseg>
  </trk>
</gpx>